Time;durP1;ratioP1;P1;durP2;ratioP2;P2;SDS_P1;SDS_P2;PMS_P1;PMS_P2;Temp;Humidity;BMP_temperature;BMP_pressure;BME280_temperature;BME280_humidity;BME280_pressure;Samples;Min_cycle;Max_cycle;Signal;HPM_P1;HPM_P2
2021/09/13 00:00:22;;;;;;;7.43;4.90;;;;;;;16.00;100.00;96043.38;1040440;28;20025;-78
2021/09/13 00:00:52;;;;;;;7.90;4.50;;;;;;;16.03;100.00;96042.78;1032186;28;20026;-78
2021/09/13 00:01:23;;;;;;;6.47;4.80;;;;;;;16.01;100.00;96044.97;1032459;28;20037;-78
2021/09/13 00:01:53;;;;;;;6.00;4.40;;;;;;;15.99;100.00;96036.41;1036304;28;20442;-77
2021/09/13 00:02:28;;;;;;;7.10;4.90;;;;;;;15.99;100.00;96047.19;1024388;28;20503;-78
2021/09/13 00:02:58;;;;;;;7.32;4.93;;;;;;;16.03;100.00;96044.69;1031858;28;20045;-78
2021/09/13 00:03:29;;;;;;;8.27;5.20;;;;;;;16.05;100.00;96037.88;1032339;28;20436;-78
2021/09/13 00:03:59;;;;;;;8.67;4.80;;;;;;;16.06;100.00;96039.47;1034166;28;20023;-78
2021/09/13 00:04:30;;;;;;;9.53;5.20;;;;;;;16.08;100.00;96041.88;1044629;28;20029;-77
2021/09/13 00:05:00;;;;;;;10.40;5.30;;;;;;;16.08;100.00;96042.69;1044469;28;20017;-78
2021/09/13 00:05:30;;;;;;;8.37;4.80;;;;;;;16.10;100.00;96045.84;1044548;28;20025;-78
2021/09/13 00:06:01;;;;;;;6.50;4.80;;;;;;;16.10;100.00;96047.75;1036104;28;20018;-77
2021/09/13 00:06:31;;;;;;;6.03;4.83;;;;;;;16.09;100.00;96046.97;1032369;28;20104;-78
2021/09/13 00:07:02;;;;;;;6.97;4.53;;;;;;;16.09;100.00;96041.56;1036194;28;20076;-78
2021/09/13 00:07:32;;;;;;;7.97;4.90;;;;;;;16.10;100.00;96047.75;1036311;28;20034;-78
2021/09/13 00:08:03;;;;;;;6.40;4.40;;;;;;;16.10;100.00;96048.56;1040283;28;20494;-77
2021/09/13 00:08:33;;;;;;;6.87;4.53;;;;;;;16.08;100.00;96044.59;1040450;28;20494;-78
2021/09/13 00:09:04;;;;;;;9.47;5.10;;;;;;;16.07;100.00;96043.78;1032270;28;20409;-78
2021/09/13 00:09:35;;;;;;;7.00;4.30;;;;;;;16.08;100.00;96044.59;1028396;28;20105;-77
2021/09/13 00:10:06;;;;;;;9.10;5.10;;;;;;;16.08;100.00;96053.47;1028360;28;20019;-77
2021/09/13 00:10:36;;;;;;;9.57;4.85;;;;;;;16.06;100.00;96044.88;1024570;28;20023;-79
2021/09/13 00:11:06;;;;;;;6.57;4.73;;;;;;;16.06;100.00;96049.47;1032395;28;20029;-79
2021/09/13 00:11:37;;;;;;;9.00;5.23;;;;;;;16.05;100.00;96047.88;1032415;28;20033;-78
2021/09/13 00:12:07;;;;;;;10.47;5.00;;;;;;;16.03;100.00;96048.19;1032282;28;20044;-78
2021/09/13 00:12:38;;;;;;;6.93;4.73;;;;;;;16.04;100.00;96052.47;1036407;28;20109;-78
2021/09/13 00:13:09;;;;;;;7.97;4.97;;;;;;;16.02;100.00;96038.50;1036385;28;20426;-78
2021/09/13 00:13:39;;;;;;;7.90;4.75;;;;;;;16.02;100.00;96048.47;1036567;28;20092;-78
2021/09/13 00:14:10;;;;;;;10.90;4.90;;;;;;;15.98;100.00;96048.28;1036291;28;20111;-78
2021/09/13 00:14:40;;;;;;;9.13;4.90;;;;;;;15.97;100.00;96054.78;1032311;28;20026;-78
2021/09/13 00:15:11;;;;;;;6.97;4.97;;;;;;;15.93;100.00;96056.50;1032244;28;20022;-78
2021/09/13 00:15:41;;;;;;;10.97;5.13;;;;;;;15.93;100.00;96047.59;1036453;28;20033;-78
2021/09/13 00:16:12;;;;;;;7.23;4.67;;;;;;;15.94;100.00;96052.69;1040445;28;20021;-78
2021/09/13 00:16:42;;;;;;;8.10;4.60;;;;;;;15.95;100.00;96048.88;1040513;28;20025;-78
2021/09/13 00:17:12;;;;;;;8.40;5.03;;;;;;;15.97;100.00;96052.09;1040272;28;20025;-78
2021/09/13 00:17:43;;;;;;;8.23;5.00;;;;;;;15.99;100.00;96049.09;1040404;28;20021;-78
2021/09/13 00:18:13;;;;;;;8.87;5.13;;;;;;;15.99;100.00;96046.38;1040290;28;20021;-78
2021/09/13 00:18:44;;;;;;;10.17;5.10;;;;;;;15.99;100.00;96049.09;1044456;28;20414;-78
2021/09/13 00:19:14;;;;;;;8.60;4.87;;;;;;;15.98;100.00;96051.00;1044760;28;20025;-77
2021/09/13 00:19:45;;;;;;;10.17;5.43;;;;;;;15.96;100.00;96049.69;1040138;28;20029;-78
2021/09/13 00:20:15;;;;;;;9.40;5.60;;;;;;;15.96;100.00;96047.78;1040192;28;20021;-78
2021/09/13 00:20:45;;;;;;;9.67;4.90;;;;;;;15.93;100.00;96045.72;1036248;28;20038;-78
2021/09/13 00:21:16;;;;;;;9.00;4.83;;;;;;;15.92;100.00;96046.00;1036377;28;20033;-78
2021/09/13 00:21:46;;;;;;;8.33;5.47;;;;;;;15.92;100.00;96054.91;1044530;28;20021;-78
2021/09/13 00:22:17;;;;;;;10.83;5.60;;;;;;;15.92;100.00;96041.44;1044451;28;20024;-78
2021/09/13 00:22:47;;;;;;;9.50;5.17;;;;;;;15.90;100.00;96051.69;1040369;28;20095;-78
2021/09/13 00:23:19;;;;;;;8.30;5.30;;;;;;;15.89;100.00;96052.78;1036147;28;20084;-77
2021/09/13 00:23:50;;;;;;;8.77;4.75;;;;;;;15.87;100.00;96049.63;1028182;28;20062;-78
2021/09/13 00:24:20;;;;;;;7.07;4.80;;;;;;;15.88;100.00;96053.91;1028790;28;20030;-78
2021/09/13 00:24:51;;;;;;;8.97;5.57;;;;;;;15.90;100.00;96053.59;1036436;28;20467;-78
2021/09/13 00:25:21;;;;;;;6.97;4.80;;;;;;;15.88;100.00;96048.50;1036517;28;20127;-78
2021/09/13 00:25:51;;;;;;;8.27;4.90;;;;;;;15.86;100.00;96048.00;1044531;28;20037;-78
2021/09/13 00:26:22;;;;;;;7.73;5.00;;;;;;;15.87;100.00;96049.63;1044468;28;20032;-78
2021/09/13 00:26:53;;;;;;;8.43;5.20;;;;;;;15.88;100.00;96053.09;1040259;28;20033;-78
2021/09/13 00:27:23;;;;;;;10.23;5.53;;;;;;;15.89;100.00;96058.19;1040312;28;20025;-78
2021/09/13 00:27:54;;;;;;;8.93;5.00;;;;;;;15.90;100.00;96051.69;1040270;28;20121;-78
2021/09/13 00:28:24;;;;;;;7.67;5.13;;;;;;;15.92;100.00;96049.50;1040003;28;20026;-78
2021/09/13 00:28:54;;;;;;;6.67;4.70;;;;;;;15.92;100.00;96054.91;1044433;28;20021;-78
2021/09/13 00:29:25;;;;;;;7.20;4.67;;;;;;;15.94;100.00;96046.50;1040214;28;20013;-79
2021/09/13 00:29:55;;;;;;;8.07;5.00;;;;;;;15.95;100.00;96051.56;1040342;28;20021;-78
2021/09/13 00:30:26;;;;;;;11.73;4.90;;;;;;;15.99;100.00;96051.78;1040304;28;20026;-79
2021/09/13 00:30:56;;;;;;;7.50;4.60;;;;;;;16.02;100.00;96053.84;1036251;28;20026;-78
2021/09/13 00:31:27;;;;;;;8.03;5.07;;;;;;;16.05;100.00;96045.97;1040312;28;20073;-78
2021/09/13 00:31:57;;;;;;;6.67;4.40;;;;;;;16.07;100.00;96053.75;1036274;28;20049;-79
2021/09/13 00:32:27;;;;;;;7.17;5.07;;;;;;;16.08;100.00;96053.47;1036418;28;20346;-78
2021/09/13 00:32:58;;;;;;;8.23;4.77;;;;;;;16.09;100.00;96049.66;1040337;28;20040;-78
2021/09/13 00:33:28;;;;;;;7.70;5.00;;;;;;;16.08;100.00;96045.38;1040185;28;20025;-78
2021/09/13 00:33:59;;;;;;;6.80;4.77;;;;;;;16.07;100.00;96051.88;1036237;28;20521;-78
2021/09/13 00:34:29;;;;;;;7.67;5.17;;;;;;;16.06;100.00;96044.88;1036428;28;20072;-78
2021/09/13 00:34:59;;;;;;;8.80;4.60;;;;;;;16.06;100.00;96041.38;1044218;28;20024;-78
2021/09/13 00:35:30;;;;;;;7.43;5.10;;;;;;;16.01;100.00;96046.88;1040055;28;20041;-78
2021/09/13 00:36:01;;;;;;;8.07;5.60;;;;;;;15.97;100.00;96046.72;1032219;28;20176;-78
2021/09/13 00:36:32;;;;;;;9.57;5.32;;;;;;;15.96;100.00;96050.47;1032135;28;20104;-78
2021/09/13 00:37:05;;;;;;;7.37;5.03;;;;;;;15.94;100.00;96050.00;1028281;28;20026;-78
2021/09/13 00:37:35;;;;;;;7.50;4.88;;;;;;;15.92;100.00;96052.19;1033171;28;20034;-78
2021/09/13 00:38:06;;;;;;;7.30;4.53;;;;;;;15.91;100.00;96050.59;1036210;28;20040;-78
2021/09/13 00:38:36;;;;;;;9.70;5.10;;;;;;;15.92;100.00;96054.06;1036535;28;20050;-78
2021/09/13 00:39:06;;;;;;;7.37;4.87;;;;;;;15.91;100.00;96050.59;1040262;28;20333;-79
2021/09/13 00:39:37;;;;;;;7.40;5.03;;;;;;;15.92;100.00;96048.69;1036277;28;20052;-78
2021/09/13 00:40:08;;;;;;;7.70;5.50;;;;;;;15.91;100.00;96045.19;1032107;28;20326;-78
2021/09/13 00:40:38;;;;;;;8.93;5.00;;;;;;;15.93;100.00;96051.09;1032131;28;20027;-78
2021/09/13 00:41:09;;;;;;;9.10;4.70;;;;;;;15.93;100.00;96058.38;1028352;28;20483;-78
2021/09/13 00:41:39;;;;;;;8.23;4.87;;;;;;;15.89;100.00;96054.69;1032282;28;20349;-78
2021/09/13 00:42:10;;;;;;;7.73;5.17;;;;;;;15.86;100.00;96048.78;1032200;28;20018;-78
2021/09/13 00:42:40;;;;;;;11.17;5.40;;;;;;;15.84;100.00;96052.91;1032234;28;20021;-78
2021/09/13 00:43:11;;;;;;;9.50;5.30;;;;;;;15.82;100.00;96050.53;1037550;28;20022;-78
2021/09/13 00:43:42;;;;;;;7.82;5.32;;;;;;;15.80;100.00;96055.41;1040485;28;20021;-78
2021/09/13 00:44:12;;;;;;;9.30;5.00;;;;;;;15.79;100.00;96047.63;1036212;28;20026;-78
2021/09/13 00:44:43;;;;;;;8.00;4.80;;;;;;;15.78;100.00;96054.91;1032048;28;20018;-78
2021/09/13 00:45:13;;;;;;;8.50;5.03;;;;;;;15.80;100.00;96046.50;1032184;28;20030;-78
2021/09/13 00:45:43;;;;;;;7.70;4.90;;;;;;;15.81;100.00;96048.09;1032216;28;20023;-78
2021/09/13 00:46:14;;;;;;;8.70;4.97;;;;;;;15.83;100.00;96052.09;1036327;28;20018;-78
2021/09/13 00:46:44;;;;;;;10.97;4.87;;;;;;;15.81;100.00;96050.78;1040231;28;20026;-79
2021/09/13 00:47:15;;;;;;;7.60;5.27;;;;;;;15.80;100.00;96051.91;1040290;28;20025;-78
2021/09/13 00:47:45;;;;;;;8.37;5.27;;;;;;;15.80;100.00;96046.50;1040327;28;20028;-78
2021/09/13 00:48:16;;;;;;;6.13;4.67;;;;;;;15.83;100.00;96045.91;1044373;28;20044;-79
2021/09/13 00:48:46;;;;;;;10.17;5.77;;;;;;;15.85;100.00;96046.41;1044203;28;20382;-78
2021/09/13 00:49:16;;;;;;;8.13;4.57;;;;;;;15.84;100.00;96047.50;1044367;28;20032;-79
2021/09/13 00:49:47;;;;;;;10.50;4.50;;;;;;;15.89;100.00;96044.72;1044348;28;20016;-78
2021/09/13 00:50:17;;;;;;;8.73;5.10;;;;;;;15.87;100.00;96038.84;1040298;28;20021;-79
2021/09/13 00:50:48;;;;;;;7.17;4.90;;;;;;;15.85;100.00;96047.19;1044379;28;20463;-78
2021/09/13 00:51:18;;;;;;;10.30;5.03;;;;;;;15.86;100.00;96046.09;1044436;28;20555;-79
2021/09/13 00:51:49;;;;;;;9.57;5.00;;;;;;;15.86;100.00;96054.19;1040158;28;20018;-78
2021/09/13 00:52:19;;;;;;;8.50;4.72;;;;;;;15.87;100.00;96046.91;1036140;28;20092;-78
2021/09/13 00:52:51;;;;;;;7.30;5.17;;;;;;;15.88;100.00;96053.09;1036164;28;20041;-79
2021/09/13 00:53:23;;;;;;;7.28;4.70;;;;;;;15.88;100.00;96043.13;1032367;28;20142;-78
2021/09/13 00:53:53;;;;;;;8.65;4.90;;;;;;;15.84;100.00;96042.91;1035759;28;20057;-78
2021/09/13 00:54:24;;;;;;;7.70;5.00;;;;;;;15.87;100.00;96036.13;1036163;28;20045;-78
2021/09/13 00:54:54;;;;;;;9.67;4.90;;;;;;;15.85;100.00;96043.72;1032299;28;20014;-79
2021/09/13 00:55:25;;;;;;;8.27;4.97;;;;;;;15.80;100.00;96044.63;1028147;28;20023;-79
2021/09/13 00:55:55;;;;;;;7.53;5.23;;;;;;;15.80;100.00;96041.13;1023954;28;20393;-78
2021/09/13 00:56:25;;;;;;;10.50;5.30;;;;;;;15.80;100.00;96044.63;1024091;29;20027;-78
2021/09/13 00:56:56;;;;;;;7.00;4.97;;;;;;;15.84;100.00;96042.91;1024095;28;20023;-78
2021/09/13 00:57:27;;;;;;;9.47;5.03;;;;;;;15.85;100.00;96039.13;1028233;28;20023;-79
2021/09/13 00:57:57;;;;;;;7.82;4.75;;;;;;;15.87;100.00;96052.31;1036341;28;20010;-78
2021/09/13 00:58:28;;;;;;;7.77;4.93;;;;;;;15.86;100.00;96046.09;1044283;28;20044;-79
2021/09/13 00:58:58;;;;;;;9.43;4.87;;;;;;;15.88;100.00;96039.63;1044314;28;20016;-78
2021/09/13 00:59:29;;;;;;;7.33;5.07;;;;;;;15.87;100.00;96036.13;1040237;28;20022;-78
2021/09/13 00:59:59;;;;;;;6.90;4.57;;;;;;;15.86;100.00;96048.00;1036189;28;20442;-77
2021/09/13 01:00:29;;;;;;;6.83;5.03;;;;;;;15.83;100.00;96035.16;1032021;28;20023;-78
2021/09/13 01:01:00;;;;;;;6.97;4.63;;;;;;;15.83;100.00;96044.03;1032108;28;20546;-78
2021/09/13 01:01:30;;;;;;;7.50;4.90;;;;;;;15.79;100.00;96039.53;1032102;28;20037;-78
2021/09/13 01:02:01;;;;;;;6.27;4.67;;;;;;;15.78;100.00;96046.03;1032047;28;20026;-78
2021/09/13 01:02:31;;;;;;;6.57;4.97;;;;;;;15.77;100.00;96041.75;1032048;28;20026;-78
2021/09/13 01:03:01;;;;;;;6.90;4.53;;;;;;;15.75;100.00;96038.53;1028109;28;20011;-79
2021/09/13 01:03:32;;;;;;;8.20;4.80;;;;;;;15.72;100.00;96041.84;1028113;28;20110;-77
2021/09/13 01:04:03;;;;;;;8.07;4.80;;;;;;;15.69;100.00;96037.84;1031888;28;20645;-78
2021/09/13 01:04:33;;;;;;;7.83;5.00;;;;;;;15.67;100.00;96036.56;1028032;28;20467;-77
2021/09/13 01:05:04;;;;;;;7.63;4.97;;;;;;;15.66;100.00;96037.63;1032212;28;20018;-77
2021/09/13 01:05:34;;;;;;;6.63;4.77;;;;;;;15.67;100.00;96036.56;1032033;28;20043;-78
2021/09/13 01:06:05;;;;;;;8.60;4.77;;;;;;;15.69;100.00;96034.34;1028259;28;20432;-77
2021/09/13 01:06:35;;;;;;;6.93;5.10;;;;;;;15.69;100.00;96037.84;1023867;28;20028;-78
2021/09/13 01:07:06;;;;;;;6.97;5.20;;;;;;;15.70;100.00;96036.75;1024068;28;20504;-77
2021/09/13 01:07:36;;;;;;;7.80;4.97;;;;;;;15.72;100.00;96036.47;1028056;28;20034;-79
2021/09/13 01:08:07;;;;;;;7.10;4.80;;;;;;;15.74;100.00;96039.63;1028175;28;20101;-78
2021/09/13 01:08:37;;;;;;;6.53;5.03;;;;;;;15.78;100.00;96035.25;1031940;28;20526;-78
2021/09/13 01:09:07;;;;;;;6.43;4.70;;;;;;;15.79;100.00;96036.84;1027996;28;20037;-76
2021/09/13 01:09:38;;;;;;;7.60;4.77;;;;;;;15.82;100.00;96028.97;1032096;28;20371;-78
2021/09/13 01:10:08;;;;;;;7.20;4.63;;;;;;;15.84;100.00;96031.34;1031973;28;20015;-78
2021/09/13 01:10:39;;;;;;;7.53;4.97;;;;;;;15.84;100.00;96026.75;1028132;28;20019;-78
2021/09/13 01:11:10;;;;;;;6.67;4.77;;;;;;;15.88;100.00;96032.34;1030923;28;20081;-78
2021/09/13 01:11:40;;;;;;;6.73;4.53;;;;;;;15.86;100.00;96027.22;1028184;28;20333;-79
2021/09/13 01:12:11;;;;;;;7.63;5.60;;;;;;;15.84;100.00;96026.75;1031932;28;20486;-78
2021/09/13 01:12:41;;;;;;;8.73;5.80;;;;;;;15.86;100.00;96026.44;1032171;28;20026;-78
2021/09/13 01:13:12;;;;;;;7.87;5.10;;;;;;;15.86;100.00;96026.44;1036061;28;20021;-78
2021/09/13 01:13:42;;;;;;;7.50;5.27;;;;;;;15.85;100.00;96032.94;1036241;28;20018;-78
2021/09/13 01:14:15;;;;;;;11.27;5.90;;;;;;;15.89;100.00;96027.75;1048403;28;20017;-78
2021/09/13 01:14:45;;;;;;;8.85;5.07;;;;;;;15.86;100.00;96031.81;1048310;28;20029;-77
2021/09/13 01:15:16;;;;;;;8.33;4.80;;;;;;;15.84;100.00;96026.75;1048428;28;20305;-79
2021/09/13 01:15:46;;;;;;;6.50;4.53;;;;;;;15.84;100.00;96025.94;1040015;28;20026;-77
2021/09/13 01:16:16;;;;;;;8.43;5.40;;;;;;;15.81;100.00;96038.13;1040346;28;20029;-77
2021/09/13 01:16:47;;;;;;;7.93;5.40;;;;;;;15.81;100.00;96023.84;1044228;28;20025;-78
2021/09/13 01:17:17;;;;;;;7.43;5.40;;;;;;;15.79;100.00;96026.84;1044242;28;20020;-78
2021/09/13 01:17:48;;;;;;;9.77;5.50;;;;;;;15.78;100.00;96038.75;1040104;28;20021;-78
2021/09/13 01:18:18;;;;;;;9.20;5.27;;;;;;;15.77;100.00;96033.66;1040163;28;20028;-78
2021/09/13 01:18:48;;;;;;;10.43;5.33;;;;;;;15.73;100.00;96035.34;1040004;28;20097;-77
2021/09/13 01:19:19;;;;;;;10.23;5.60;;;;;;;15.70;100.00;96039.44;1036084;28;20026;-78
2021/09/13 01:19:49;;;;;;;7.50;5.40;;;;;;;15.67;100.00;96037.38;1035946;28;20030;-77
2021/09/13 01:20:22;;;;;;;6.90;4.97;;;;;;;15.67;100.00;96037.38;1027739;28;20356;-77
2021/09/13 01:20:54;;;;;;;9.43;5.60;;;;;;;15.64;100.00;96035.25;1028137;28;20057;-77
2021/09/13 01:21:26;;;;;;;7.90;5.45;;;;;;;15.58;100.00;96031.84;1028331;28;20038;-78
2021/09/13 01:21:58;;;;;;;8.18;5.15;;;;;;;15.55;100.00;96037.81;1036711;28;20101;-79
2021/09/13 01:22:28;;;;;;;11.30;5.95;;;;;;;15.49;100.00;96036.31;1036074;28;20021;-79
2021/09/13 01:23:05;;;;;;;8.87;5.33;;;;;;;15.50;100.00;96034.44;1032471;28;20494;-75
2021/09/13 01:23:35;;;;;;;10.10;5.45;;;;;;;15.49;100.00;96038.22;1033316;28;20140;-77
2021/09/13 01:24:06;;;;;;;9.27;5.63;;;;;;;15.46;100.00;96036.94;1037020;28;20052;-76
2021/09/13 01:24:37;;;;;;;9.23;5.37;;;;;;;15.43;100.00;96037.53;1042080;28;20083;-78
2021/09/13 01:25:08;;;;;;;9.97;5.60;;;;;;;15.39;100.00;96035.72;1048318;28;20017;-77
2021/09/13 01:25:38;;;;;;;9.90;5.30;;;;;;;15.37;100.00;96035.25;1044147;28;20024;-79
2021/09/13 01:26:09;;;;;;;10.60;6.30;;;;;;;15.34;100.00;96039.31;1040013;28;20624;-78
2021/09/13 01:26:39;;;;;;;9.13;6.00;;;;;;;15.29;100.00;96037.53;1036006;28;20006;-79
2021/09/13 01:27:10;;;;;;;10.97;5.33;;;;;;;15.26;100.00;96035.44;1036038;28;20370;-78
2021/09/13 01:27:40;;;;;;;8.73;5.53;;;;;;;15.25;100.00;96038.41;1040040;28;20043;-79
2021/09/13 01:28:11;;;;;;;9.67;5.50;;;;;;;15.22;100.00;96037.13;1040255;28;20036;-79
2021/09/13 01:28:41;;;;;;;7.97;5.07;;;;;;;15.22;100.00;96041.72;1040253;28;20048;-79
2021/09/13 01:29:12;;;;;;;7.57;5.30;;;;;;;15.19;100.00;96036.91;1044287;28;20492;-79
2021/09/13 01:29:42;;;;;;;7.47;5.57;;;;;;;15.19;100.00;96036.91;1041851;28;20013;-78
2021/09/13 01:30:13;;;;;;;9.07;5.30;;;;;;;15.14;100.00;96028.94;1040166;28;20021;-77
2021/09/13 01:30:43;;;;;;;7.20;5.33;;;;;;;15.12;100.00;96034.63;1040117;28;20108;-77
2021/09/13 01:31:13;;;;;;;8.80;5.53;;;;;;;15.09;100.00;96032.53;1040132;28;20028;-77
2021/09/13 01:31:44;;;;;;;12.27;5.13;;;;;;;15.06;100.00;96039.31;1040112;28;20030;-77
2021/09/13 01:32:14;;;;;;;7.30;5.60;;;;;;;15.06;100.00;96036.63;1040026;28;20025;-78
2021/09/13 01:32:45;;;;;;;7.30;5.07;;;;;;;15.10;100.00;96039.53;1036111;28;20033;-77
2021/09/13 01:33:15;;;;;;;8.87;5.43;;;;;;;15.10;100.00;96028.75;1036049;28;20029;-77
2021/09/13 01:33:45;;;;;;;8.47;4.70;;;;;;;15.12;100.00;96034.63;1027912;28;20484;-77
2021/09/13 01:34:16;;;;;;;7.73;5.10;;;;;;;15.16;100.00;96032.16;1023973;29;20023;-77
2021/09/13 01:34:46;;;;;;;7.60;5.40;;;;;;;15.17;100.00;96031.84;1023962;28;20408;-77
2021/09/13 01:35:17;;;;;;;9.27;5.00;;;;;;;15.19;100.00;96032.31;1028091;28;20079;-77
2021/09/13 01:35:47;;;;;;;9.13;5.00;;;;;;;15.20;100.00;96039.34;1036147;28;20069;-77
2021/09/13 01:36:17;;;;;;;7.47;5.03;;;;;;;15.23;100.00;96033.34;1040371;28;20036;-77
2021/09/13 01:36:48;;;;;;;5.67;4.03;;;;;;;15.26;100.00;96031.97;1040032;28;20029;-78
2021/09/13 01:37:18;;;;;;;7.20;5.07;;;;;;;15.26;100.00;96037.34;1027880;28;20121;-78
2021/09/13 01:37:49;;;;;;;9.03;5.00;;;;;;;15.27;100.00;96031.66;1027862;28;20026;-77
2021/09/13 01:38:22;;;;;;;6.07;4.80;;;;;;;15.27;100.00;96031.66;1027955;28;20019;-79
2021/09/13 01:38:52;;;;;;;6.63;4.65;;;;;;;15.28;100.00;96035.13;1025106;28;20027;-77
2021/09/13 01:39:23;;;;;;;7.97;5.10;;;;;;;15.31;100.00;96034.56;1035922;28;20038;-78
2021/09/13 01:39:53;;;;;;;7.53;4.70;;;;;;;15.28;100.00;96029.75;1031866;28;20026;-77
2021/09/13 01:40:24;;;;;;;7.07;4.83;;;;;;;15.28;100.00;96035.94;1023915;29;20074;-77
2021/09/13 01:40:54;;;;;;;9.57;4.23;;;;;;;15.29;100.00;96034.03;1024042;28;20030;-78
2021/09/13 01:41:24;;;;;;;6.17;4.23;;;;;;;15.33;100.00;96037.72;1027964;28;20139;-78
2021/09/13 01:41:55;;;;;;;5.53;4.30;;;;;;;15.32;100.00;96030.75;1032072;28;20025;-78
2021/09/13 01:42:25;;;;;;;7.73;4.87;;;;;;;15.33;100.00;96032.34;1040084;28;20084;-79
2021/09/13 01:42:59;;;;;;;9.47;4.90;;;;;;;15.38;100.00;96026.06;1036004;28;20021;-79
2021/09/13 01:43:29;;;;;;;6.70;4.90;;;;;;;15.38;100.00;96023.38;1031989;28;20116;-78
2021/09/13 01:44:00;;;;;;;9.40;5.37;;;;;;;15.40;100.00;96031.94;1028279;28;20105;-77
2021/09/13 01:44:30;;;;;;;8.53;4.70;;;;;;;15.40;100.00;96034.63;1031919;28;20033;-78
2021/09/13 01:45:01;;;;;;;5.93;4.70;;;;;;;15.39;100.00;96031.16;1031599;28;20045;-79
2021/09/13 01:45:31;;;;;;;8.60;4.87;;;;;;;15.39;100.00;96027.66;1040108;28;20379;-79
2021/09/13 01:46:04;;;;;;;7.07;5.10;;;;;;;15.39;100.00;96027.66;1040048;28;20429;-78
2021/09/13 01:46:34;;;;;;;6.53;4.60;;;;;;;15.38;100.00;96028.75;1036074;28;20045;-78
2021/09/13 01:47:04;;;;;;;7.90;4.90;;;;;;;15.37;100.00;96030.66;1035912;28;20038;-78
2021/09/13 01:47:35;;;;;;;7.33;5.37;;;;;;;15.36;100.00;96031.75;1032205;28;20034;-78
2021/09/13 01:48:05;;;;;;;11.50;6.30;;;;;;;15.34;100.00;96028.56;1035991;28;20022;-78
2021/09/13 01:48:36;;;;;;;9.17;5.40;;;;;;;15.33;100.00;96032.34;1036076;28;20102;-78
2021/09/13 01:49:07;;;;;;;7.70;5.07;;;;;;;15.30;100.00;96030.25;1040152;28;20021;-78
2021/09/13 01:49:37;;;;;;;9.05;5.53;;;;;;;15.26;100.00;96035.44;1040023;28;20042;-79
2021/09/13 01:50:09;;;;;;;6.40;4.80;;;;;;;15.25;100.00;96033.84;1031994;28;20035;-78
2021/09/13 01:50:40;;;;;;;6.80;4.60;;;;;;;15.24;100.00;96023.38;1036053;28;20502;-78
2021/09/13 01:51:11;;;;;;;7.40;5.15;;;;;;;15.21;100.00;96037.44;1036163;28;20525;-79
2021/09/13 01:51:41;;;;;;;6.97;4.77;;;;;;;15.20;100.00;96030.44;1040360;28;20029;-78
2021/09/13 01:52:12;;;;;;;7.77;4.77;;;;;;;15.20;100.00;96031.25;1044460;28;20009;-78
2021/09/13 01:52:42;;;;;;;9.17;4.87;;;;;;;15.17;100.00;96034.53;1044548;28;20017;-78
2021/09/13 01:53:12;;;;;;;11.33;5.30;;;;;;;15.16;100.00;96034.84;1044112;28;20013;-79
2021/09/13 01:53:43;;;;;;;7.23;5.07;;;;;;;15.21;100.00;96040.13;1035987;28;20109;-78
2021/09/13 01:54:14;;;;;;;7.63;4.77;;;;;;;15.18;100.00;96036.13;1031906;28;20041;-78
2021/09/13 01:54:44;;;;;;;9.30;5.67;;;;;;;15.16;100.00;96041.00;1031979;28;20026;-78
2021/09/13 01:55:14;;;;;;;9.47;5.00;;;;;;;15.15;100.00;96041.28;1036249;28;20010;-78
2021/09/13 01:55:45;;;;;;;7.43;5.10;;;;;;;15.14;100.00;96034.31;1039981;28;20404;-79
2021/09/13 01:56:15;;;;;;;8.20;5.53;;;;;;;15.13;100.00;96038.13;1035864;28;20022;-79
2021/09/13 01:56:46;;;;;;;10.70;5.33;;;;;;;15.07;100.00;96035.50;1035900;28;20026;-78
2021/09/13 01:57:16;;;;;;;7.00;5.03;;;;;;;15.05;100.00;96035.03;1027898;28;20007;-79
2021/09/13 01:57:46;;;;;;;7.93;5.47;;;;;;;15.04;100.00;96040.69;1036104;28;20068;-79
2021/09/13 01:58:17;;;;;;;7.00;5.53;;;;;;;15.05;100.00;96034.22;1040111;28;20083;-78
2021/09/13 01:58:47;;;;;;;6.43;4.97;;;;;;;15.00;100.00;96043.19;1036106;28;20080;-78
2021/09/13 01:59:18;;;;;;;6.60;5.20;;;;;;;14.98;100.00;96037.28;1040085;28;20516;-78
2021/09/13 01:59:48;;;;;;;9.10;5.20;;;;;;;14.98;100.00;96039.19;1036021;28;20452;-78
2021/09/13 02:00:19;;;;;;;7.80;5.50;;;;;;;14.94;100.00;96030.91;1027801;28;20468;-78
2021/09/13 02:00:49;;;;;;;6.93;5.57;;;;;;;14.86;100.00;96033.50;1031921;28;20026;-78
2021/09/13 02:01:20;;;;;;;7.17;5.23;;;;;;;14.77;100.00;96026.09;1027708;28;20031;-77
2021/09/13 02:01:51;;;;;;;7.88;4.85;;;;;;;14.74;100.00;96031.25;1031679;28;20022;-78
2021/09/13 02:02:21;;;;;;;10.30;5.53;;;;;;;14.71;100.00;96038.03;1032064;28;20022;-78
2021/09/13 02:02:52;;;;;;;10.80;5.60;;;;;;;14.68;100.00;96029.75;1036241;28;20025;-78
2021/09/13 02:03:22;;;;;;;8.37;5.40;;;;;;;14.62;100.00;96028.25;1040012;28;20021;-77
2021/09/13 02:03:52;;;;;;;10.50;5.50;;;;;;;14.53;100.00;96028.91;1031631;28;20338;-78
2021/09/13 02:04:23;;;;;;;7.07;5.43;;;;;;;14.52;100.00;96031.88;1031916;28;20034;-78
2021/09/13 02:04:53;;;;;;;6.77;4.87;;;;;;;14.55;100.00;96029.41;1035584;28;20033;-77
2021/09/13 02:05:24;;;;;;;8.00;5.40;;;;;;;14.53;100.00;96031.59;1035941;28;20025;-76
2021/09/13 02:05:54;;;;;;;8.03;5.30;;;;;;;14.52;100.00;96024.63;1035954;28;20056;-77
2021/09/13 02:06:25;;;;;;;7.17;5.10;;;;;;;14.51;100.00;96028.41;1035900;28;20014;-78
2021/09/13 02:06:55;;;;;;;8.73;6.00;;;;;;;14.57;100.00;96027.22;1035749;28;20028;-77
2021/09/13 02:07:25;;;;;;;7.20;5.50;;;;;;;14.57;100.00;96026.44;1031625;28;20105;-77
2021/09/13 02:07:56;;;;;;;7.37;4.77;;;;;;;14.56;100.00;96031.00;1035966;28;20084;-77
2021/09/13 02:08:26;;;;;;;8.03;5.73;;;;;;;14.56;100.00;96028.31;1040021;28;20017;-77
2021/09/13 02:08:57;;;;;;;9.20;4.87;;;;;;;14.59;100.00;96023.44;1039870;28;20017;-77
2021/09/13 02:09:27;;;;;;;8.37;5.27;;;;;;;14.61;100.00;96034.72;1039929;28;20025;-77
2021/09/13 02:09:58;;;;;;;6.77;4.73;;;;;;;14.62;100.00;96028.25;1035982;28;20027;-77
2021/09/13 02:10:28;;;;;;;9.10;4.73;;;;;;;14.64;100.00;96026.88;1035908;28;20018;-77
2021/09/13 02:10:59;;;;;;;7.60;4.37;;;;;;;14.65;100.00;96022.28;1035802;28;20429;-77
2021/09/13 02:11:29;;;;;;;8.70;4.80;;;;;;;14.69;100.00;96025.94;1039213;28;20465;-77
2021/09/13 02:11:59;;;;;;;8.47;5.00;;;;;;;14.68;100.00;96027.06;1039889;28;20017;-78
2021/09/13 02:12:30;;;;;;;6.20;4.37;;;;;;;14.70;100.00;96024.88;1040241;28;20382;-77
2021/09/13 02:13:01;;;;;;;8.55;4.57;;;;;;;14.68;100.00;96025.16;1031644;28;20467;-78
2021/09/13 02:13:31;;;;;;;6.93;4.77;;;;;;;14.67;100.00;96026.25;1027782;28;20038;-76
2021/09/13 02:14:02;;;;;;;7.03;4.37;;;;;;;14.67;100.00;96020.09;1027790;28;20019;-77
2021/09/13 02:14:32;;;;;;;6.43;4.57;;;;;;;14.61;100.00;96019.38;1028249;28;20416;-78
2021/09/13 02:15:03;;;;;;;7.40;5.03;;;;;;;14.57;100.00;96024.53;1031786;28;20030;-76
2021/09/13 02:15:33;;;;;;;6.90;4.97;;;;;;;14.54;100.00;96021.66;1035798;28;20037;-77
2021/09/13 02:16:04;;;;;;;9.17;4.90;;;;;;;14.52;100.00;96023.81;1035852;28;20451;-77
2021/09/13 02:16:35;;;;;;;5.85;4.50;;;;;;;14.49;100.00;96019.03;1036099;28;20026;-77
2021/09/13 02:17:05;;;;;;;9.97;5.00;;;;;;;14.42;100.00;96022.06;1040310;28;20376;-78
2021/09/13 02:17:36;;;;;;;7.60;5.03;;;;;;;14.35;100.00;96016.28;1040248;28;20025;-77
2021/09/13 02:18:06;;;;;;;10.20;5.23;;;;;;;14.34;100.00;96019.25;1031761;28;20026;-76
2021/09/13 02:18:36;;;;;;;10.47;5.33;;;;;;;14.32;100.00;96014.94;1031792;28;20026;-78
2021/09/13 02:19:07;;;;;;;6.13;4.60;;;;;;;14.27;100.00;96012.34;1031838;28;20022;-77
2021/09/13 02:19:37;;;;;;;7.70;5.00;;;;;;;14.29;100.00;96017.44;1031773;28;20392;-77
2021/09/13 02:20:08;;;;;;;8.03;5.20;;;;;;;14.37;100.00;96018.66;1040022;28;20009;-78
2021/09/13 02:20:39;;;;;;;7.68;5.22;;;;;;;14.38;100.00;96022.94;1040945;28;20033;-77
2021/09/13 02:21:09;;;;;;;7.13;4.93;;;;;;;14.39;100.00;96016.50;1044064;28;20040;-78
2021/09/13 02:21:40;;;;;;;6.13;4.50;;;;;;;14.39;100.00;96016.50;1035691;28;20048;-77
2021/09/13 02:22:10;;;;;;;7.83;5.00;;;;;;;14.43;100.00;96022.84;1031219;28;20340;-77